sensor_id;sensor_type;location;lat;lon;timestamp;P1;durP1;ratioP1;P2;durP2;ratioP2
9160;SDS011;4615;51.340;8.288;2023-01-30T00:00:30;31.52;;;24.10;;
9160;SDS011;4615;51.340;8.288;2023-01-30T00:02:56;29.27;;;23.77;;
9160;SDS011;4615;51.340;8.288;2023-01-30T00:05:23;30.45;;;24.23;;
9160;SDS011;4615;51.340;8.288;2023-01-30T00:07:49;31.70;;;24.90;;
9160;SDS011;4615;51.340;8.288;2023-01-30T00:10:15;31.30;;;23.83;;
9160;SDS011;4615;51.340;8.288;2023-01-30T00:12:42;32.00;;;24.27;;
9160;SDS011;4615;51.340;8.288;2023-01-30T00:15:08;30.80;;;23.80;;
9160;SDS011;4615;51.340;8.288;2023-01-30T00:17:36;31.33;;;23.45;;
9160;SDS011;4615;51.340;8.288;2023-01-30T00:20:03;31.40;;;23.52;;
9160;SDS011;4615;51.340;8.288;2023-01-30T00:22:29;32.30;;;24.83;;
9160;SDS011;4615;51.340;8.288;2023-01-30T00:24:55;30.83;;;24.65;;
9160;SDS011;4615;51.340;8.288;2023-01-30T00:27:22;30.27;;;23.27;;
9160;SDS011;4615;51.340;8.288;2023-01-30T00:29:48;27.90;;;21.98;;
9160;SDS011;4615;51.340;8.288;2023-01-30T00:32:15;30.23;;;22.95;;
9160;SDS011;4615;51.340;8.288;2023-01-30T00:34:42;30.30;;;23.83;;
9160;SDS011;4615;51.340;8.288;2023-01-30T00:37:09;30.40;;;23.90;;
9160;SDS011;4615;51.340;8.288;2023-01-30T00:39:35;33.30;;;25.20;;
9160;SDS011;4615;51.340;8.288;2023-01-30T00:42:02;32.40;;;24.85;;
9160;SDS011;4615;51.340;8.288;2023-01-30T00:44:46;30.17;;;22.83;;
9160;SDS011;4615;51.340;8.288;2023-01-30T00:47:35;31.38;;;24.30;;
9160;SDS011;4615;51.340;8.288;2023-01-30T00:50:03;31.95;;;23.88;;
9160;SDS011;4615;51.340;8.288;2023-01-30T00:52:29;32.17;;;23.83;;
9160;SDS011;4615;51.340;8.288;2023-01-30T00:54:56;32.28;;;24.98;;
9160;SDS011;4615;51.340;8.288;2023-01-30T00:57:22;32.00;;;24.23;;
9160;SDS011;4615;51.340;8.288;2023-01-30T00:59:48;33.93;;;24.63;;
9160;SDS011;4615;51.340;8.288;2023-01-30T01:02:15;32.75;;;24.85;;
9160;SDS011;4615;51.340;8.288;2023-01-30T01:04:41;31.67;;;24.17;;
9160;SDS011;4615;51.340;8.288;2023-01-30T01:07:09;33.40;;;24.23;;
9160;SDS011;4615;51.340;8.288;2023-01-30T01:09:36;32.38;;;24.45;;
9160;SDS011;4615;51.340;8.288;2023-01-30T01:12:02;32.65;;;24.00;;
9160;SDS011;4615;51.340;8.288;2023-01-30T01:14:29;31.83;;;23.83;;
9160;SDS011;4615;51.340;8.288;2023-01-30T01:16:55;31.67;;;24.60;;
9160;SDS011;4615;51.340;8.288;2023-01-30T01:19:21;30.65;;;23.50;;
9160;SDS011;4615;51.340;8.288;2023-01-30T01:21:48;32.58;;;23.67;;
9160;SDS011;4615;51.340;8.288;2023-01-30T01:24:16;29.85;;;22.88;;
9160;SDS011;4615;51.340;8.288;2023-01-30T01:26:42;27.55;;;21.85;;
9160;SDS011;4615;51.340;8.288;2023-01-30T01:29:10;30.77;;;23.30;;
9160;SDS011;4615;51.340;8.288;2023-01-30T01:31:37;28.23;;;21.85;;
9160;SDS011;4615;51.340;8.288;2023-01-30T01:34:03;29.40;;;22.50;;
9160;SDS011;4615;51.340;8.288;2023-01-30T01:36:29;28.13;;;21.60;;
9160;SDS011;4615;51.340;8.288;2023-01-30T01:38:56;28.52;;;22.27;;
9160;SDS011;4615;51.340;8.288;2023-01-30T01:41:24;26.88;;;21.17;;
9160;SDS011;4615;51.340;8.288;2023-01-30T01:43:59;26.75;;;20.88;;
9160;SDS011;4615;51.340;8.288;2023-01-30T01:46:27;22.73;;;19.52;;
9160;SDS011;4615;51.340;8.288;2023-01-30T01:48:55;23.60;;;19.48;;
9160;SDS011;4615;51.340;8.288;2023-01-30T01:51:24;24.33;;;19.58;;
9160;SDS011;4615;51.340;8.288;2023-01-30T01:53:52;25.52;;;20.50;;
9160;SDS011;4615;51.340;8.288;2023-01-30T01:56:21;26.52;;;20.70;;
9160;SDS011;4615;51.340;8.288;2023-01-30T01:58:50;25.83;;;20.20;;
9160;SDS011;4615;51.340;8.288;2023-01-30T02:01:17;26.42;;;20.05;;
9160;SDS011;4615;51.340;8.288;2023-01-30T02:03:44;28.02;;;21.95;;
9160;SDS011;4615;51.340;8.288;2023-01-30T02:06:12;26.50;;;20.73;;
9160;SDS011;4615;51.340;8.288;2023-01-30T02:08:40;28.27;;;22.10;;
9160;SDS011;4615;51.340;8.288;2023-01-30T02:11:09;28.48;;;22.23;;
9160;SDS011;4615;51.340;8.288;2023-01-30T02:13:37;28.13;;;21.53;;
9160;SDS011;4615;51.340;8.288;2023-01-30T02:16:06;30.02;;;22.80;;
9160;SDS011;4615;51.340;8.288;2023-01-30T02:18:33;28.05;;;22.15;;
9160;SDS011;4615;51.340;8.288;2023-01-30T02:21:03;27.13;;;21.38;;
9160;SDS011;4615;51.340;8.288;2023-01-30T02:23:36;28.40;;;22.30;;
9160;SDS011;4615;51.340;8.288;2023-01-30T02:26:17;28.85;;;22.63;;
9160;SDS011;4615;51.340;8.288;2023-01-30T02:29:02;27.95;;;21.55;;
9160;SDS011;4615;51.340;8.288;2023-01-30T02:31:37;26.27;;;20.30;;
9160;SDS011;4615;51.340;8.288;2023-01-30T02:34:09;25.42;;;19.73;;
9160;SDS011;4615;51.340;8.288;2023-01-30T02:36:39;24.00;;;18.25;;
9160;SDS011;4615;51.340;8.288;2023-01-30T02:39:10;24.85;;;19.85;;
9160;SDS011;4615;51.340;8.288;2023-01-30T02:41:42;21.75;;;18.10;;
9160;SDS011;4615;51.340;8.288;2023-01-30T02:44:14;20.75;;;17.30;;
9160;SDS011;4615;51.340;8.288;2023-01-30T02:46:45;18.63;;;16.02;;
9160;SDS011;4615;51.340;8.288;2023-01-30T02:49:15;19.10;;;16.05;;
9160;SDS011;4615;51.340;8.288;2023-01-30T02:51:44;17.83;;;15.50;;
9160;SDS011;4615;51.340;8.288;2023-01-30T02:54:11;17.05;;;14.65;;
9160;SDS011;4615;51.340;8.288;2023-01-30T02:56:45;14.45;;;12.95;;
9160;SDS011;4615;51.340;8.288;2023-01-30T02:59:12;13.13;;;11.82;;
9160;SDS011;4615;51.340;8.288;2023-01-30T03:04:41;12.65;;;11.35;;
9160;SDS011;4615;51.340;8.288;2023-01-30T03:07:16;10.80;;;9.70;;
9160;SDS011;4615;51.340;8.288;2023-01-30T03:09:47;12.00;;;10.73;;
9160;SDS011;4615;51.340;8.288;2023-01-30T03:12:17;11.38;;;10.18;;
9160;SDS011;4615;51.340;8.288;2023-01-30T03:14:48;11.23;;;10.02;;
9160;SDS011;4615;51.340;8.288;2023-01-30T03:17:17;10.90;;;9.52;;
9160;SDS011;4615;51.340;8.288;2023-01-30T03:19:45;10.53;;;9.50;;
9160;SDS011;4615;51.340;8.288;2023-01-30T03:22:12;10.52;;;9.38;;
9160;SDS011;4615;51.340;8.288;2023-01-30T03:24:38;10.82;;;9.73;;
9160;SDS011;4615;51.340;8.288;2023-01-30T03:27:05;9.98;;;8.98;;
9160;SDS011;4615;51.340;8.288;2023-01-30T03:29:32;10.40;;;9.30;;
9160;SDS011;4615;51.340;8.288;2023-01-30T03:31:59;11.20;;;10.00;;
9160;SDS011;4615;51.340;8.288;2023-01-30T03:34:25;11.43;;;10.23;;
9160;SDS011;4615;51.340;8.288;2023-01-30T03:36:53;12.38;;;10.40;;
9160;SDS011;4615;51.340;8.288;2023-01-30T03:39:20;13.52;;;11.70;;
9160;SDS011;4615;51.340;8.288;2023-01-30T03:41:48;14.73;;;11.95;;
9160;SDS011;4615;51.340;8.288;2023-01-30T03:44:14;13.77;;;11.95;;
9160;SDS011;4615;51.340;8.288;2023-01-30T03:46:40;14.90;;;12.60;;
9160;SDS011;4615;51.340;8.288;2023-01-30T03:49:07;15.07;;;13.40;;
9160;SDS011;4615;51.340;8.288;2023-01-30T03:51:33;15.23;;;13.38;;
9160;SDS011;4615;51.340;8.288;2023-01-30T03:54:01;16.15;;;13.75;;
9160;SDS011;4615;51.340;8.288;2023-01-30T03:56:27;16.38;;;14.60;;
9160;SDS011;4615;51.340;8.288;2023-01-30T03:58:54;18.55;;;15.30;;
9160;SDS011;4615;51.340;8.288;2023-01-30T04:01:20;17.83;;;14.45;;
9160;SDS011;4615;51.340;8.288;2023-01-30T04:03:46;18.63;;;15.18;;
9160;SDS011;4615;51.340;8.288;2023-01-30T04:06:13;18.00;;;16.10;;
9160;SDS011;4615;51.340;8.288;2023-01-30T04:08:39;18.20;;;16.10;;
9160;SDS011;4615;51.340;8.288;2023-01-30T04:11:07;18.38;;;15.93;;
9160;SDS011;4615;51.340;8.288;2023-01-30T04:13:33;19.25;;;16.40;;
9160;SDS011;4615;51.340;8.288;2023-01-30T04:16:12;16.23;;;14.47;;
9160;SDS011;4615;51.340;8.288;2023-01-30T04:18:39;18.17;;;15.25;;
9160;SDS011;4615;51.340;8.288;2023-01-30T04:21:05;17.15;;;14.55;;
9160;SDS011;4615;51.340;8.288;2023-01-30T04:23:32;17.63;;;15.75;;
9160;SDS011;4615;51.340;8.288;2023-01-30T04:25:58;19.73;;;16.55;;
9160;SDS011;4615;51.340;8.288;2023-01-30T04:28:26;19.98;;;16.20;;
9160;SDS011;4615;51.340;8.288;2023-01-30T04:30:52;20.42;;;16.50;;
9160;SDS011;4615;51.340;8.288;2023-01-30T04:33:19;18.98;;;15.88;;
9160;SDS011;4615;51.340;8.288;2023-01-30T04:35:50;18.27;;;15.65;;
9160;SDS011;4615;51.340;8.288;2023-01-30T04:38:16;18.25;;;15.32;;
9160;SDS011;4615;51.340;8.288;2023-01-30T04:40:46;17.83;;;15.15;;
9160;SDS011;4615;51.340;8.288;2023-01-30T04:43:12;18.38;;;15.38;;
9160;SDS011;4615;51.340;8.288;2023-01-30T04:45:42;16.00;;;14.30;;
9160;SDS011;4615;51.340;8.288;2023-01-30T04:48:09;16.15;;;13.70;;
9160;SDS011;4615;51.340;8.288;2023-01-30T04:50:35;15.27;;;13.68;;
9160;SDS011;4615;51.340;8.288;2023-01-30T04:53:02;13.65;;;12.25;;
9160;SDS011;4615;51.340;8.288;2023-01-30T04:55:28;14.05;;;12.57;;
9160;SDS011;4615;51.340;8.288;2023-01-30T04:57:54;12.75;;;11.45;;
9160;SDS011;4615;51.340;8.288;2023-01-30T05:00:21;12.30;;;11.10;;
9160;SDS011;4615;51.340;8.288;2023-01-30T05:02:49;10.15;;;9.13;;
9160;SDS011;4615;51.340;8.288;2023-01-30T05:05:15;9.93;;;9.02;;
9160;SDS011;4615;51.340;8.288;2023-01-30T05:07:42;9.38;;;8.32;;
9160;SDS011;4615;51.340;8.288;2023-01-30T05:10:09;9.05;;;8.20;;
9160;SDS011;4615;51.340;8.288;2023-01-30T05:12:35;8.88;;;8.02;;
9160;SDS011;4615;51.340;8.288;2023-01-30T05:15:02;9.45;;;8.55;;
9160;SDS011;4615;51.340;8.288;2023-01-30T05:17:29;8.80;;;7.90;;
9160;SDS011;4615;51.340;8.288;2023-01-30T05:19:56;7.90;;;7.20;;
9160;SDS011;4615;51.340;8.288;2023-01-30T05:22:23;7.85;;;7.15;;
9160;SDS011;4615;51.340;8.288;2023-01-30T05:24:49;7.43;;;6.80;;
9160;SDS011;4615;51.340;8.288;2023-01-30T05:27:16;7.70;;;7.00;;
9160;SDS011;4615;51.340;8.288;2023-01-30T05:29:42;6.72;;;6.10;;
9160;SDS011;4615;51.340;8.288;2023-01-30T05:32:09;6.80;;;6.20;;
9160;SDS011;4615;51.340;8.288;2023-01-30T05:34:35;6.90;;;6.30;;
9160;SDS011;4615;51.340;8.288;2023-01-30T05:37:03;6.90;;;6.30;;
9160;SDS011;4615;51.340;8.288;2023-01-30T05:39:30;5.93;;;5.40;;
9160;SDS011;4615;51.340;8.288;2023-01-30T05:41:56;5.65;;;5.15;;
9160;SDS011;4615;51.340;8.288;2023-01-30T05:44:23;5.70;;;5.20;;
9160;SDS011;4615;51.340;8.288;2023-01-30T05:46:49;5.22;;;4.72;;
9160;SDS011;4615;51.340;8.288;2023-01-30T05:49:16;5.10;;;4.70;;
9160;SDS011;4615;51.340;8.288;2023-01-30T05:51:42;4.97;;;4.57;;
9160;SDS011;4615;51.340;8.288;2023-01-30T05:54:10;4.50;;;4.10;;
9160;SDS011;4615;51.340;8.288;2023-01-30T05:56:36;4.53;;;4.13;;
9160;SDS011;4615;51.340;8.288;2023-01-30T05:59:02;4.30;;;4.00;;
9160;SDS011;4615;51.340;8.288;2023-01-30T06:01:29;4.10;;;3.80;;
9160;SDS011;4615;51.340;8.288;2023-01-30T06:03:56;3.80;;;3.50;;
9160;SDS011;4615;51.340;8.288;2023-01-30T06:06:23;3.92;;;3.63;;
9160;SDS011;4615;51.340;8.288;2023-01-30T06:08:51;4.17;;;3.77;;
9160;SDS011;4615;51.340;8.288;2023-01-30T06:11:19;3.60;;;3.30;;
9160;SDS011;4615;51.340;8.288;2023-01-30T06:13:46;3.97;;;3.58;;
9160;SDS011;4615;51.340;8.288;2023-01-30T06:16:13;4.10;;;3.80;;
9160;SDS011;4615;51.340;8.288;2023-01-30T06:18:40;3.95;;;3.65;;
9160;SDS011;4615;51.340;8.288;2023-01-30T06:21:06;4.10;;;3.80;;
9160;SDS011;4615;51.340;8.288;2023-01-30T06:23:33;4.18;;;3.78;;
9160;SDS011;4615;51.340;8.288;2023-01-30T06:25:59;4.03;;;3.63;;
9160;SDS011;4615;51.340;8.288;2023-01-30T06:28:27;3.70;;;3.40;;
9160;SDS011;4615;51.340;8.288;2023-01-30T06:30:54;4.00;;;3.63;;
9160;SDS011;4615;51.340;8.288;2023-01-30T06:33:20;4.30;;;3.95;;
9160;SDS011;4615;51.340;8.288;2023-01-30T06:35:47;3.90;;;3.60;;
9160;SDS011;4615;51.340;8.288;2023-01-30T06:38:14;3.88;;;3.58;;
9160;SDS011;4615;51.340;8.288;2023-01-30T06:40:42;3.83;;;3.53;;
9160;SDS011;4615;51.340;8.288;2023-01-30T06:43:09;4.15;;;3.78;;
9160;SDS011;4615;51.340;8.288;2023-01-30T06:45:37;4.10;;;3.78;;
9160;SDS011;4615;51.340;8.288;2023-01-30T06:48:03;3.90;;;3.60;;
9160;SDS011;4615;51.340;8.288;2023-01-30T06:50:30;4.50;;;4.10;;
9160;SDS011;4615;51.340;8.288;2023-01-30T06:52:56;4.35;;;3.95;;
9160;SDS011;4615;51.340;8.288;2023-01-30T06:55:24;4.80;;;4.40;;
9160;SDS011;4615;51.340;8.288;2023-01-30T06:57:59;4.72;;;4.32;;
9160;SDS011;4615;51.340;8.288;2023-01-30T07:00:26;5.50;;;5.00;;
9160;SDS011;4615;51.340;8.288;2023-01-30T07:02:54;6.00;;;5.50;;
9160;SDS011;4615;51.340;8.288;2023-01-30T07:05:20;6.57;;;6.00;;
9160;SDS011;4615;51.340;8.288;2023-01-30T07:07:46;7.03;;;6.43;;
9160;SDS011;4615;51.340;8.288;2023-01-30T07:10:13;8.63;;;7.72;;
9160;SDS011;4615;51.340;8.288;2023-01-30T07:12:39;9.17;;;8.27;;
9160;SDS011;4615;51.340;8.288;2023-01-30T07:15:06;9.05;;;8.20;;
9160;SDS011;4615;51.340;8.288;2023-01-30T07:17:32;9.43;;;8.52;;
9160;SDS011;4615;51.340;8.288;2023-01-30T07:20:00;9.40;;;8.50;;
9160;SDS011;4615;51.340;8.288;2023-01-30T07:22:28;10.63;;;9.63;;
9160;SDS011;4615;51.340;8.288;2023-01-30T07:24:55;10.57;;;9.47;;
9160;SDS011;4615;51.340;8.288;2023-01-30T07:27:21;10.20;;;9.30;;
9160;SDS011;4615;51.340;8.288;2023-01-30T07:29:47;11.00;;;9.88;;
9160;SDS011;4615;51.340;8.288;2023-01-30T07:32:17;11.70;;;10.48;;
9160;SDS011;4615;51.340;8.288;2023-01-30T07:34:44;12.70;;;11.48;;
9160;SDS011;4615;51.340;8.288;2023-01-30T07:37:12;12.27;;;11.00;;
9160;SDS011;4615;51.340;8.288;2023-01-30T07:39:38;12.68;;;11.48;;
9160;SDS011;4615;51.340;8.288;2023-01-30T07:42:05;12.50;;;11.15;;
9160;SDS011;4615;51.340;8.288;2023-01-30T07:44:31;13.18;;;11.85;;
9160;SDS011;4615;51.340;8.288;2023-01-30T07:46:58;11.98;;;10.88;;
9160;SDS011;4615;51.340;8.288;2023-01-30T07:49:24;12.55;;;11.10;;
9160;SDS011;4615;51.340;8.288;2023-01-30T07:51:51;12.30;;;11.07;;
9160;SDS011;4615;51.340;8.288;2023-01-30T07:54:19;13.38;;;11.50;;
9160;SDS011;4615;51.340;8.288;2023-01-30T07:56:45;13.10;;;11.27;;
9160;SDS011;4615;51.340;8.288;2023-01-30T07:59:12;14.15;;;11.77;;
9160;SDS011;4615;51.340;8.288;2023-01-30T08:01:38;13.20;;;11.73;;
9160;SDS011;4615;51.340;8.288;2023-01-30T08:04:04;13.70;;;12.30;;
9160;SDS011;4615;51.340;8.288;2023-01-30T08:06:31;13.32;;;11.98;;
9160;SDS011;4615;51.340;8.288;2023-01-30T08:09:02;15.65;;;11.35;;
9160;SDS011;4615;51.340;8.288;2023-01-30T08:11:30;12.32;;;11.02;;
9160;SDS011;4615;51.340;8.288;2023-01-30T08:13:56;13.50;;;11.70;;
9160;SDS011;4615;51.340;8.288;2023-01-30T08:16:23;15.90;;;12.88;;
9160;SDS011;4615;51.340;8.288;2023-01-30T08:18:49;13.52;;;12.20;;
9160;SDS011;4615;51.340;8.288;2023-01-30T08:21:16;13.87;;;12.03;;
9160;SDS011;4615;51.340;8.288;2023-01-30T08:23:42;15.00;;;12.43;;
9160;SDS011;4615;51.340;8.288;2023-01-30T08:26:08;14.35;;;12.85;;
9160;SDS011;4615;51.340;8.288;2023-01-30T08:28:36;14.75;;;12.25;;
9160;SDS011;4615;51.340;8.288;2023-01-30T08:31:07;13.85;;;12.43;;
9160;SDS011;4615;51.340;8.288;2023-01-30T08:33:33;13.53;;;12.07;;
9160;SDS011;4615;51.340;8.288;2023-01-30T08:36:00;13.15;;;11.80;;
9160;SDS011;4615;51.340;8.288;2023-01-30T08:38:26;15.50;;;12.52;;
9160;SDS011;4615;51.340;8.288;2023-01-30T08:40:52;14.77;;;11.60;;
9160;SDS011;4615;51.340;8.288;2023-01-30T08:43:21;13.05;;;11.27;;
9160;SDS011;4615;51.340;8.288;2023-01-30T08:45:48;13.13;;;10.90;;
9160;SDS011;4615;51.340;8.288;2023-01-30T08:48:17;13.05;;;11.55;;
9160;SDS011;4615;51.340;8.288;2023-01-30T08:50:44;12.25;;;10.15;;
9160;SDS011;4615;51.340;8.288;2023-01-30T08:53:10;14.75;;;9.80;;
9160;SDS011;4615;51.340;8.288;2023-01-30T08:55:37;12.80;;;9.80;;
9160;SDS011;4615;51.340;8.288;2023-01-30T08:58:03;13.25;;;8.68;;
9160;SDS011;4615;51.340;8.288;2023-01-30T09:00:29;12.70;;;7.90;;
9160;SDS011;4615;51.340;8.288;2023-01-30T09:02:57;12.30;;;7.72;;
9160;SDS011;4615;51.340;8.288;2023-01-30T09:05:24;11.15;;;7.80;;
9160;SDS011;4615;51.340;8.288;2023-01-30T09:07:50;12.82;;;7.60;;
9160;SDS011;4615;51.340;8.288;2023-01-30T09:10:17;11.38;;;6.90;;
9160;SDS011;4615;51.340;8.288;2023-01-30T09:12:43;11.57;;;6.97;;
9160;SDS011;4615;51.340;8.288;2023-01-30T09:15:10;13.55;;;7.00;;
9160;SDS011;4615;51.340;8.288;2023-01-30T09:17:37;11.38;;;7.03;;
9160;SDS011;4615;51.340;8.288;2023-01-30T09:20:05;12.40;;;7.78;;
9160;SDS011;4615;51.340;8.288;2023-01-30T09:22:32;12.45;;;5.68;;
9160;SDS011;4615;51.340;8.288;2023-01-30T09:24:58;11.35;;;5.68;;
9160;SDS011;4615;51.340;8.288;2023-01-30T09:27:24;11.65;;;5.78;;
9160;SDS011;4615;51.340;8.288;2023-01-30T09:29:51;12.93;;;5.43;;
9160;SDS011;4615;51.340;8.288;2023-01-30T09:32:17;13.50;;;5.17;;
9160;SDS011;4615;51.340;8.288;2023-01-30T09:34:44;7.45;;;3.80;;
9160;SDS011;4615;51.340;8.288;2023-01-30T09:37:11;12.65;;;4.40;;
9160;SDS011;4615;51.340;8.288;2023-01-30T09:39:38;11.27;;;4.80;;
9160;SDS011;4615;51.340;8.288;2023-01-30T09:42:08;11.32;;;4.20;;
9160;SDS011;4615;51.340;8.288;2023-01-30T09:44:47;10.13;;;4.65;;
9160;SDS011;4615;51.340;8.288;2023-01-30T09:47:17;12.60;;;4.70;;
9160;SDS011;4615;51.340;8.288;2023-01-30T09:49:51;11.38;;;4.85;;
9160;SDS011;4615;51.340;8.288;2023-01-30T09:52:23;12.70;;;4.35;;
9160;SDS011;4615;51.340;8.288;2023-01-30T09:54:53;10.37;;;4.30;;
9160;SDS011;4615;51.340;8.288;2023-01-30T09:57:21;14.45;;;4.72;;
9160;SDS011;4615;51.340;8.288;2023-01-30T09:59:53;11.60;;;3.80;;
9160;SDS011;4615;51.340;8.288;2023-01-30T10:02:23;11.65;;;3.90;;
9160;SDS011;4615;51.340;8.288;2023-01-30T10:04:51;13.85;;;3.88;;
9160;SDS011;4615;51.340;8.288;2023-01-30T10:07:23;13.07;;;3.83;;
9160;SDS011;4615;51.340;8.288;2023-01-30T10:09:57;11.55;;;3.60;;
9160;SDS011;4615;51.340;8.288;2023-01-30T10:12:27;13.33;;;3.67;;
9160;SDS011;4615;51.340;8.288;2023-01-30T10:15:03;12.25;;;4.35;;
9160;SDS011;4615;51.340;8.288;2023-01-30T10:17:32;11.77;;;4.22;;
9160;SDS011;4615;51.340;8.288;2023-01-30T10:20:09;17.30;;;6.60;;
9160;SDS011;4615;51.340;8.288;2023-01-30T10:22:43;13.13;;;4.00;;
9160;SDS011;4615;51.340;8.288;2023-01-30T10:25:16;13.20;;;3.55;;
9160;SDS011;4615;51.340;8.288;2023-01-30T10:27:46;12.48;;;3.83;;
9160;SDS011;4615;51.340;8.288;2023-01-30T10:30:14;10.60;;;3.80;;
9160;SDS011;4615;51.340;8.288;2023-01-30T10:32:42;9.75;;;3.35;;
9160;SDS011;4615;51.340;8.288;2023-01-30T10:35:12;11.40;;;4.03;;
9160;SDS011;4615;51.340;8.288;2023-01-30T10:37:43;11.80;;;3.65;;
9160;SDS011;4615;51.340;8.288;2023-01-30T10:40:13;13.20;;;3.60;;
9160;SDS011;4615;51.340;8.288;2023-01-30T10:42:44;10.57;;;3.97;;
9160;SDS011;4615;51.340;8.288;2023-01-30T10:45:14;12.70;;;3.78;;
9160;SDS011;4615;51.340;8.288;2023-01-30T10:47:46;14.32;;;4.15;;
9160;SDS011;4615;51.340;8.288;2023-01-30T10:50:17;12.48;;;3.50;;
9160;SDS011;4615;51.340;8.288;2023-01-30T10:52:48;10.73;;;3.42;;
9160;SDS011;4615;51.340;8.288;2023-01-30T10:55:19;13.25;;;3.92;;
9160;SDS011;4615;51.340;8.288;2023-01-30T10:57:52;12.18;;;3.88;;
9160;SDS011;4615;51.340;8.288;2023-01-30T11:00:22;11.05;;;4.00;;
9160;SDS011;4615;51.340;8.288;2023-01-30T11:02:56;11.77;;;4.03;;
9160;SDS011;4615;51.340;8.288;2023-01-30T11:05:24;11.98;;;3.78;;
9160;SDS011;4615;51.340;8.288;2023-01-30T11:07:52;15.45;;;4.22;;
9160;SDS011;4615;51.340;8.288;2023-01-30T11:10:19;15.13;;;4.03;;
9160;SDS011;4615;51.340;8.288;2023-01-30T11:12:46;11.18;;;3.63;;
9160;SDS011;4615;51.340;8.288;2023-01-30T11:15:13;12.50;;;3.70;;
9160;SDS011;4615;51.340;8.288;2023-01-30T11:17:40;14.63;;;4.22;;
9160;SDS011;4615;51.340;8.288;2023-01-30T11:20:10;13.10;;;3.83;;
9160;SDS011;4615;51.340;8.288;2023-01-30T11:22:48;12.50;;;3.85;;
9160;SDS011;4615;51.340;8.288;2023-01-30T11:25:17;12.20;;;4.00;;
9160;SDS011;4615;51.340;8.288;2023-01-30T11:27:50;9.52;;;3.58;;
9160;SDS011;4615;51.340;8.288;2023-01-30T11:30:17;11.98;;;3.83;;
9160;SDS011;4615;51.340;8.288;2023-01-30T11:32:44;14.30;;;3.97;;
9160;SDS011;4615;51.340;8.288;2023-01-30T11:35:22;13.95;;;3.92;;
9160;SDS011;4615;51.340;8.288;2023-01-30T11:37:49;15.63;;;4.03;;
9160;SDS011;4615;51.340;8.288;2023-01-30T11:40:22;12.18;;;4.03;;
9160;SDS011;4615;51.340;8.288;2023-01-30T11:42:50;11.93;;;3.60;;
9160;SDS011;4615;51.340;8.288;2023-01-30T11:45:23;11.57;;;3.83;;
9160;SDS011;4615;51.340;8.288;2023-01-30T11:47:52;10.15;;;3.63;;
9160;SDS011;4615;51.340;8.288;2023-01-30T11:50:18;11.90;;;3.63;;
9160;SDS011;4615;51.340;8.288;2023-01-30T11:52:46;10.57;;;3.58;;
9160;SDS011;4615;51.340;8.288;2023-01-30T11:55:14;13.85;;;3.90;;
9160;SDS011;4615;51.340;8.288;2023-01-30T11:57:44;12.90;;;3.83;;
9160;SDS011;4615;51.340;8.288;2023-01-30T12:00:13;12.90;;;3.97;;
9160;SDS011;4615;51.340;8.288;2023-01-30T12:02:41;15.85;;;4.18;;
9160;SDS011;4615;51.340;8.288;2023-01-30T12:05:16;13.75;;;4.20;;
9160;SDS011;4615;51.340;8.288;2023-01-30T12:07:44;12.93;;;3.70;;
9160;SDS011;4615;51.340;8.288;2023-01-30T12:10:18;15.13;;;4.15;;
9160;SDS011;4615;51.340;8.288;2023-01-30T12:12:51;14.35;;;4.07;;
9160;SDS011;4615;51.340;8.288;2023-01-30T12:15:20;12.90;;;4.15;;
9160;SDS011;4615;51.340;8.288;2023-01-30T12:17:49;14.05;;;4.18;;
9160;SDS011;4615;51.340;8.288;2023-01-30T12:20:19;15.23;;;4.32;;
9160;SDS011;4615;51.340;8.288;2023-01-30T12:22:50;14.93;;;4.22;;
9160;SDS011;4615;51.340;8.288;2023-01-30T12:25:19;15.57;;;4.70;;
9160;SDS011;4615;51.340;8.288;2023-01-30T12:27:49;15.18;;;4.78;;
9160;SDS011;4615;51.340;8.288;2023-01-30T12:30:23;13.40;;;4.45;;
9160;SDS011;4615;51.340;8.288;2023-01-30T12:32:52;16.48;;;4.85;;
9160;SDS011;4615;51.340;8.288;2023-01-30T12:35:22;15.07;;;4.88;;
9160;SDS011;4615;51.340;8.288;2023-01-30T12:37:53;16.13;;;4.55;;
9160;SDS011;4615;51.340;8.288;2023-01-30T12:40:27;15.60;;;4.50;;
9160;SDS011;4615;51.340;8.288;2023-01-30T12:43:00;16.65;;;4.50;;
9160;SDS011;4615;51.340;8.288;2023-01-30T12:45:30;14.82;;;4.90;;
9160;SDS011;4615;51.340;8.288;2023-01-30T12:48:01;15.95;;;5.22;;
9160;SDS011;4615;51.340;8.288;2023-01-30T12:50:33;15.80;;;4.40;;
9160;SDS011;4615;51.340;8.288;2023-01-30T12:53:18;17.30;;;4.70;;
9160;SDS011;4615;51.340;8.288;2023-01-30T12:55:50;17.52;;;4.20;;
9160;SDS011;4615;51.340;8.288;2023-01-30T12:58:20;13.20;;;4.07;;
9160;SDS011;4615;51.340;8.288;2023-01-30T13:00:57;16.30;;;4.20;;
9160;SDS011;4615;51.340;8.288;2023-01-30T13:03:29;16.88;;;4.22;;
9160;SDS011;4615;51.340;8.288;2023-01-30T13:05:59;13.02;;;4.03;;
9160;SDS011;4615;51.340;8.288;2023-01-30T13:08:33;13.40;;;3.80;;
9160;SDS011;4615;51.340;8.288;2023-01-30T13:11:03;13.45;;;3.90;;
9160;SDS011;4615;51.340;8.288;2023-01-30T13:13:33;13.93;;;3.97;;
9160;SDS011;4615;51.340;8.288;2023-01-30T13:16:05;13.20;;;3.53;;
9160;SDS011;4615;51.340;8.288;2023-01-30T13:18:36;10.90;;;3.40;;
9160;SDS011;4615;51.340;8.288;2023-01-30T13:21:06;12.80;;;3.60;;
9160;SDS011;4615;51.340;8.288;2023-01-30T13:23:36;13.10;;;4.03;;
9160;SDS011;4615;51.340;8.288;2023-01-30T13:26:06;14.23;;;3.92;;
9160;SDS011;4615;51.340;8.288;2023-01-30T13:28:35;13.80;;;3.95;;
9160;SDS011;4615;51.340;8.288;2023-01-30T13:31:05;12.30;;;3.85;;
9160;SDS011;4615;51.340;8.288;2023-01-30T13:33:32;11.77;;;3.83;;
9160;SDS011;4615;51.340;8.288;2023-01-30T13:36:02;11.63;;;3.95;;
9160;SDS011;4615;51.340;8.288;2023-01-30T13:38:30;13.77;;;4.32;;
9160;SDS011;4615;51.340;8.288;2023-01-30T13:40:59;14.90;;;4.47;;
9160;SDS011;4615;51.340;8.288;2023-01-30T13:43:27;12.45;;;3.88;;
9160;SDS011;4615;51.340;8.288;2023-01-30T13:45:55;13.85;;;3.85;;
9160;SDS011;4615;51.340;8.288;2023-01-30T13:48:36;16.52;;;4.13;;
9160;SDS011;4615;51.340;8.288;2023-01-30T13:51:20;11.60;;;3.78;;
9160;SDS011;4615;51.340;8.288;2023-01-30T13:53:50;13.60;;;3.55;;
9160;SDS011;4615;51.340;8.288;2023-01-30T13:56:20;14.50;;;3.78;;
9160;SDS011;4615;51.340;8.288;2023-01-30T13:58:52;11.20;;;3.70;;
9160;SDS011;4615;51.340;8.288;2023-01-30T14:01:20;12.37;;;3.93;;
9160;SDS011;4615;51.340;8.288;2023-01-30T14:03:51;13.63;;;4.03;;
9160;SDS011;4615;51.340;8.288;2023-01-30T14:09:02;15.57;;;4.38;;
9160;SDS011;4615;51.340;8.288;2023-01-30T14:11:34;11.05;;;3.97;;
9160;SDS011;4615;51.340;8.288;2023-01-30T14:14:03;13.55;;;4.00;;
9160;SDS011;4615;51.340;8.288;2023-01-30T14:16:40;16.75;;;4.72;;
9160;SDS011;4615;51.340;8.288;2023-01-30T14:21:54;15.07;;;4.43;;
9160;SDS011;4615;51.340;8.288;2023-01-30T14:24:21;17.80;;;4.18;;
9160;SDS011;4615;51.340;8.288;2023-01-30T14:26:59;13.60;;;4.15;;
9160;SDS011;4615;51.340;8.288;2023-01-30T14:32:17;14.15;;;3.80;;
9160;SDS011;4615;51.340;8.288;2023-01-30T14:35:18;13.43;;;4.32;;
9160;SDS011;4615;51.340;8.288;2023-01-30T14:37:47;15.90;;;4.20;;
9160;SDS011;4615;51.340;8.288;2023-01-30T14:40:30;14.00;;;4.40;;
9160;SDS011;4615;51.340;8.288;2023-01-30T14:45:44;16.50;;;4.28;;
9160;SDS011;4615;51.340;8.288;2023-01-30T14:48:21;15.33;;;4.30;;
9160;SDS011;4615;51.340;8.288;2023-01-30T14:53:34;16.55;;;4.20;;
9160;SDS011;4615;51.340;8.288;2023-01-30T14:56:00;14.98;;;4.20;;
9160;SDS011;4615;51.340;8.288;2023-01-30T14:58:28;15.50;;;4.20;;
9160;SDS011;4615;51.340;8.288;2023-01-30T15:00:55;20.13;;;4.32;;
9160;SDS011;4615;51.340;8.288;2023-01-30T15:03:23;14.82;;;4.18;;
9160;SDS011;4615;51.340;8.288;2023-01-30T15:05:50;20.03;;;4.70;;
9160;SDS011;4615;51.340;8.288;2023-01-30T15:08:17;14.40;;;3.97;;
9160;SDS011;4615;51.340;8.288;2023-01-30T15:13:38;12.73;;;3.92;;
9160;SDS011;4615;51.340;8.288;2023-01-30T15:16:10;15.75;;;4.15;;
9160;SDS011;4615;51.340;8.288;2023-01-30T15:18:45;13.35;;;4.00;;
9160;SDS011;4615;51.340;8.288;2023-01-30T15:24:07;15.03;;;5.70;;
9160;SDS011;4615;51.340;8.288;2023-01-30T15:26:40;12.45;;;4.03;;
9160;SDS011;4615;51.340;8.288;2023-01-30T15:29:25;12.57;;;3.40;;